Time;durP1;ratioP1;P1;durP2;ratioP2;P2;SDS_P1;SDS_P2;PMS_P1;PMS_P2;Temp;Humidity;BMP_temperature;BMP_pressure;BME280_temperature;BME280_humidity;BME280_pressure;Samples;Min_cycle;Max_cycle;Signal;HPM_P1;HPM_P2
2023/07/21 00:01:14;;;;;;;3.92;2.78;;;20.20;68.00;;;;;;4982413;28;20038;-72
2023/07/21 00:03:41;;;;;;;4.78;2.50;;;20.20;68.30;;;;;;4980022;28;20030;-72
2023/07/21 00:06:07;;;;;;;4.03;2.17;;;20.20;68.50;;;;;;4982830;28;20031;-73
2023/07/21 00:08:34;;;;;;;3.80;2.35;;;20.20;68.30;;;;;;4984992;28;20112;-73
2023/07/21 00:11:00;;;;;;;5.15;2.50;;;20.20;68.10;;;;;;4989310;28;20073;-73
2023/07/21 00:13:27;;;;;;;6.00;2.30;;;20.10;68.30;;;;;;4985832;28;20031;-73
2023/07/21 00:15:54;;;;;;;3.88;2.70;;;20.10;68.50;;;;;;4986585;28;20041;-74
2023/07/21 00:18:20;;;;;;;7.03;2.80;;;20.10;68.80;;;;;;4984910;28;20054;-73
2023/07/21 00:20:47;;;;;;;4.25;2.58;;;20.10;69.00;;;;;;4988316;28;20049;-73
2023/07/21 00:23:14;;;;;;;5.75;2.97;;;20.00;69.10;;;;;;4991771;28;20038;-73
2023/07/21 00:25:40;;;;;;;3.83;2.33;;;20.00;69.20;;;;;;4987428;28;20492;-74
2023/07/21 00:28:07;;;;;;;4.22;2.80;;;20.00;68.90;;;;;;4988430;28;20133;-73
2023/07/21 00:30:37;;;;;;;3.95;2.25;;;20.00;68.90;;;;;;4986278;28;20030;-73
2023/07/21 00:33:03;;;;;;;4.47;2.40;;;20.00;69.00;;;;;;4982465;28;20245;-73
2023/07/21 00:35:30;;;;;;;4.10;2.60;;;20.00;69.20;;;;;;4998983;28;20717;-73
2023/07/21 00:38:01;;;;;;;6.65;2.58;;;19.90;69.30;;;;;;4983708;28;20038;-73
2023/07/21 00:40:29;;;;;;;4.13;2.50;;;19.90;69.40;;;;;;4982818;28;20472;-73
2023/07/21 00:42:58;;;;;;;5.82;2.65;;;19.90;69.30;;;;;;4982121;28;20030;-73
2023/07/21 00:45:24;;;;;;;4.53;2.58;;;19.90;69.10;;;;;;4983865;28;20034;-72
2023/07/21 00:47:51;;;;;;;5.60;2.30;;;19.90;69.20;;;;;;5004425;28;20048;-72
2023/07/21 00:50:17;;;;;;;7.25;2.70;;;19.90;69.40;;;;;;5004888;28;20088;-72
2023/07/21 00:52:43;;;;;;;5.80;2.20;;;19.90;69.00;;;;;;5032870;28;20034;-72
2023/07/21 00:55:10;;;;;;;6.55;2.72;;;19.90;68.90;;;;;;5031915;28;20034;-73
2023/07/21 00:57:36;;;;;;;3.80;2.20;;;19.90;68.80;;;;;;5000880;28;20042;-72
2023/07/21 01:00:12;;;;;;;4.30;2.08;;;19.90;68.90;;;;;;5001868;28;20045;-72
2023/07/21 01:02:38;;;;;;;2.95;2.20;;;19.90;69.30;;;;;;5017749;28;20041;-71
2023/07/21 01:05:06;;;;;;;4.90;2.22;;;19.90;69.40;;;;;;5032991;28;20529;-72
2023/07/21 01:07:34;;;;;;;4.13;2.33;;;19.90;69.50;;;;;;5003020;28;20073;-73
2023/07/21 01:10:01;;;;;;;6.35;2.30;;;19.90;69.50;;;;;;5002093;28;20049;-71
2023/07/21 01:12:27;;;;;;;4.00;2.55;;;19.90;69.50;;;;;;5032482;28;20037;-72
2023/07/21 01:14:53;;;;;;;4.15;2.50;;;19.90;69.50;;;;;;5033977;28;20041;-71
2023/07/21 01:17:20;;;;;;;6.03;2.67;;;19.90;69.90;;;;;;5002107;28;20409;-72
2023/07/21 01:19:50;;;;;;;4.68;2.10;;;19.90;70.20;;;;;;5002965;28;20037;-72
2023/07/21 01:22:25;;;;;;;3.10;2.08;;;19.90;69.80;;;;;;5000259;28;20041;-72
2023/07/21 01:24:51;;;;;;;3.40;2.03;;;19.90;70.00;;;;;;5016013;28;20042;-72
2023/07/21 01:27:21;;;;;;;4.90;2.58;;;19.90;70.10;;;;;;4999767;28;21954;-72
2023/07/21 01:29:50;;;;;;;5.97;2.42;;;19.90;69.80;;;;;;5000793;28;20045;-73
2023/07/21 01:32:19;;;;;;;5.38;2.75;;;19.80;69.90;;;;;;5000553;28;20129;-72
2023/07/21 01:34:46;;;;;;;3.45;1.95;;;19.80;70.10;;;;;;5033191;28;20057;-71
2023/07/21 01:37:13;;;;;;;2.60;2.03;;;19.80;70.10;;;;;;5000698;28;20030;-71
2023/07/21 01:39:40;;;;;;;6.82;2.25;;;19.80;70.00;;;;;;5031539;28;20165;-71
2023/07/21 01:42:07;;;;;;;4.72;2.15;;;19.80;70.20;;;;;;5031776;28;20092;-72
2023/07/21 01:44:34;;;;;;;5.82;2.65;;;19.80;70.50;;;;;;4999767;28;20045;-72
2023/07/21 01:47:00;;;;;;;4.65;2.50;;;19.80;70.90;;;;;;5000388;28;20386;-72
2023/07/21 01:49:26;;;;;;;5.60;2.70;;;19.80;70.80;;;;;;5035467;28;20069;-72
2023/07/21 01:51:56;;;;;;;3.55;2.20;;;19.80;71.10;;;;;;4999944;28;20033;-73
2023/07/21 01:54:32;;;;;;;3.33;2.47;;;19.80;71.60;;;;;;5004251;28;20038;-73
2023/07/21 01:57:07;;;;;;;3.45;2.00;;;19.80;71.70;;;;;;5001721;28;20038;-72
2023/07/21 01:59:33;;;;;;;5.05;2.50;;;19.80;71.30;;;;;;5033414;28;20033;-72
2023/07/21 02:02:00;;;;;;;5.43;2.30;;;19.80;71.30;;;;;;4999150;28;20109;-72
2023/07/21 02:04:26;;;;;;;4.20;2.20;;;19.80;71.60;;;;;;5000850;28;20038;-72
2023/07/21 02:06:52;;;;;;;3.50;2.40;;;19.80;72.00;;;;;;4996912;28;20631;-72
2023/07/21 02:09:20;;;;;;;9.30;2.60;;;19.80;71.60;;;;;;5017162;28;20212;-72
2023/07/21 02:11:48;;;;;;;3.47;2.55;;;19.80;71.40;;;;;;5002578;28;20918;-72
2023/07/21 02:14:42;;;;;;;;;;;19.80;71.10;;;;;;4995049;28;20042;-72
2023/07/21 02:17:08;;;;;;;2.80;2.22;;;19.80;71.20;;;;;;5009205;28;20282;-72
2023/07/21 02:19:35;;;;;;;4.72;2.30;;;19.80;70.60;;;;;;5010849;28;20038;-72
2023/07/21 02:22:01;;;;;;;5.75;2.30;;;19.80;70.90;;;;;;5011846;28;20045;-71
2023/07/21 02:24:27;;;;;;;4.03;2.30;;;19.70;70.70;;;;;;4995831;28;20046;-72
2023/07/21 02:26:54;;;;;;;2.92;2.25;;;19.80;70.70;;;;;;4977322;28;20957;-71
2023/07/21 02:29:20;;;;;;;4.10;2.13;;;19.70;70.30;;;;;;4979056;28;20051;-72
2023/07/21 02:31:49;;;;;;;3.15;2.20;;;19.80;70.60;;;;;;5010320;28;20568;-71
2023/07/21 02:34:15;;;;;;;5.25;2.65;;;19.80;70.90;;;;;;4979592;28;20030;-71
2023/07/21 02:36:41;;;;;;;3.25;2.28;;;19.80;70.90;;;;;;4983137;28;20519;-73
2023/07/21 02:39:07;;;;;;;3.03;2.47;;;19.80;71.10;;;;;;4994485;28;20042;-72
2023/07/21 02:41:33;;;;;;;4.55;2.65;;;19.80;70.80;;;;;;5010507;28;20048;-72
2023/07/21 02:44:00;;;;;;;5.55;2.92;;;19.80;70.70;;;;;;5012599;28;20073;-72
2023/07/21 02:46:26;;;;;;;4.00;2.20;;;19.80;70.70;;;;;;5011653;28;20609;-73
2023/07/21 02:48:52;;;;;;;4.28;2.58;;;19.80;70.70;;;;;;5013468;28;20045;-71
2023/07/21 02:51:17;;;;;;;4.25;2.47;;;19.80;70.50;;;;;;4980547;28;20051;-72
2023/07/21 02:53:47;;;;;;;5.63;2.25;;;19.80;70.70;;;;;;4993657;28;20121;-72
2023/07/21 02:56:15;;;;;;;2.88;2.20;;;19.80;70.90;;;;;;5010785;28;20042;-72
2023/07/21 02:59:08;;;;;;;4.03;2.28;;;19.80;70.90;;;;;;5010173;28;20054;-72
2023/07/21 03:01:35;;;;;;;2.42;2.22;;;19.80;70.90;;;;;;5010253;28;20125;-74
2023/07/21 03:04:03;;;;;;;4.15;1.95;;;19.90;70.70;;;;;;5016972;28;20046;-71
2023/07/21 03:06:31;;;;;;;3.05;2.00;;;19.90;70.90;;;;;;4995012;28;20045;-72
2023/07/21 03:08:58;;;;;;;2.40;1.95;;;19.90;70.90;;;;;;5010708;28;20046;-72
2023/07/21 03:11:28;;;;;;;4.97;2.17;;;19.90;71.10;;;;;;5011596;28;20041;-72
2023/07/21 03:14:11;;;;;;;2.80;1.80;;;19.90;71.20;;;;;;5012866;28;20509;-72
2023/07/21 03:16:37;;;;;;;3.22;1.85;;;19.90;71.20;;;;;;5010201;28;20027;-73
2023/07/21 03:19:05;;;;;;;4.55;2.28;;;20.00;71.20;;;;;;4986754;28;20030;-73
2023/07/21 03:21:30;;;;;;;4.10;2.08;;;20.00;71.40;;;;;;5013391;28;20030;-74
2023/07/21 03:23:57;;;;;;;3.92;2.05;;;20.00;71.60;;;;;;4999036;28;20516;-73
2023/07/21 03:26:27;;;;;;;3.08;2.20;;;20.00;71.60;;;;;;5031205;28;20050;-73
2023/07/21 03:28:57;;;;;;;3.50;2.40;;;20.00;71.50;;;;;;4996609;28;20042;-73
2023/07/21 03:31:26;;;;;;;5.43;2.15;;;20.00;71.50;;;;;;4977600;28;20027;-74
2023/07/21 03:34:03;;;;;;;4.38;2.15;;;20.00;71.40;;;;;;5011629;28;20038;-73
2023/07/21 03:36:31;;;;;;;4.05;2.25;;;20.00;71.40;;;;;;5012100;28;20560;-73
2023/07/21 03:38:58;;;;;;;5.57;2.47;;;20.10;71.30;;;;;;4988383;28;20068;-72
2023/07/21 03:41:24;;;;;;;7.25;2.83;;;20.10;71.40;;;;;;5000610;28;20550;-73
2023/07/21 03:43:51;;;;;;;5.00;2.40;;;20.10;71.40;;;;;;4978126;28;20517;-72
2023/07/21 03:46:18;;;;;;;3.67;2.20;;;20.10;71.40;;;;;;4970333;28;20046;-75
2023/07/21 03:48:56;;;;;;;2.20;1.92;;;20.10;71.40;;;;;;4982740;28;20440;-74
2023/07/21 03:51:24;;;;;;;4.43;2.00;;;20.10;71.40;;;;;;5012016;28;20058;-74
2023/07/21 03:53:51;;;;;;;5.13;2.30;;;20.10;71.40;;;;;;4981722;28;20062;-74
2023/07/21 03:56:21;;;;;;;4.15;2.45;;;20.10;71.40;;;;;;4985298;28;20640;-73
2023/07/21 03:58:48;;;;;;;5.07;2.22;;;20.20;71.50;;;;;;5015446;28;20085;-75
2023/07/21 04:01:15;;;;;;;2.95;2.17;;;20.20;71.50;;;;;;5014718;28;20093;-74
2023/07/21 04:03:41;;;;;;;4.78;1.83;;;20.20;71.50;;;;;;5014390;28;20045;-73
2023/07/21 04:06:07;;;;;;;4.18;2.00;;;20.20;71.60;;;;;;5015813;28;20453;-73
2023/07/21 04:08:34;;;;;;;3.47;2.00;;;20.30;71.40;;;;;;4984187;28;20037;-72
2023/07/21 04:11:00;;;;;;;4.63;2.15;;;20.20;71.20;;;;;;4983550;28;20518;-72
2023/07/21 04:13:26;;;;;;;4.80;2.20;;;20.30;71.30;;;;;;4983375;28;20137;-72
2023/07/21 04:15:53;;;;;;;2.47;1.90;;;20.20;70.90;;;;;;4979888;28;20048;-72
2023/07/21 04:18:19;;;;;;;3.20;2.22;;;20.30;70.80;;;;;;5012891;28;20042;-73
2023/07/21 04:20:45;;;;;;;4.47;2.40;;;20.30;70.90;;;;;;5014160;28;20022;-72
2023/07/21 04:23:12;;;;;;;4.55;2.30;;;20.30;70.80;;;;;;4997687;28;20050;-72
2023/07/21 04:25:38;;;;;;;4.78;2.42;;;20.30;70.80;;;;;;5002076;28;20108;-73
2023/07/21 04:28:05;;;;;;;5.80;2.70;;;20.30;70.70;;;;;;5013454;28;20034;-71
2023/07/21 04:30:34;;;;;;;3.85;2.20;;;20.30;70.90;;;;;;4981831;28;20030;-72
2023/07/21 04:33:01;;;;;;;4.72;2.60;;;20.40;71.00;;;;;;5013852;28;20117;-71
2023/07/21 04:35:27;;;;;;;6.22;2.72;;;20.30;71.10;;;;;;5014518;28;20034;-72
2023/07/21 04:37:53;;;;;;;4.28;2.63;;;20.40;70.80;;;;;;5014008;28;20612;-72
2023/07/21 04:40:22;;;;;;;4.03;2.40;;;20.40;70.80;;;;;;5012676;28;20034;-71
2023/07/21 04:42:50;;;;;;;6.78;2.67;;;20.40;70.80;;;;;;5013911;28;20129;-72
2023/07/21 04:45:17;;;;;;;5.85;2.70;;;20.40;70.70;;;;;;5013212;28;20513;-72
2023/07/21 04:47:57;;;;;;;8.05;2.90;;;20.40;70.80;;;;;;4997138;28;20045;-72
2023/07/21 04:50:24;;;;;;;6.25;2.80;;;20.50;71.00;;;;;;4997845;28;20089;-72
2023/07/21 04:52:51;;;;;;;6.45;2.90;;;20.50;70.90;;;;;;5015995;28;20038;-72
2023/07/21 04:55:17;;;;;;;5.43;2.70;;;20.60;71.00;;;;;;4992123;28;20061;-72
2023/07/21 04:57:43;;;;;;;4.05;2.78;;;20.60;71.00;;;;;;5018400;28;20503;-73
2023/07/21 05:00:14;;;;;;;3.90;2.58;;;20.60;70.90;;;;;;4998723;28;20125;-73
2023/07/21 05:02:39;;;;;;;4.47;2.90;;;20.60;71.20;;;;;;5017072;28;20512;-72
2023/07/21 05:05:07;;;;;;;4.85;2.83;;;20.70;71.20;;;;;;5016366;28;20030;-74
2023/07/21 05:07:37;;;;;;;7.30;2.67;;;20.70;71.20;;;;;;5016887;28;20029;-73
2023/07/21 05:10:05;;;;;;;3.47;2.72;;;20.70;71.40;;;;;;5015336;28;20037;-73
2023/07/21 05:12:31;;;;;;;4.50;2.50;;;20.70;71.30;;;;;;5015538;28;20126;-71
2023/07/21 05:15:09;;;;;;;6.47;2.92;;;20.80;71.10;;;;;;5003972;28;20062;-72
2023/07/21 05:17:42;;;;;;;4.32;2.58;;;20.80;71.00;;;;;;5014846;28;20079;-74
2023/07/21 05:20:19;;;;;;;5.28;2.30;;;20.90;71.00;;;;;;5012236;28;20034;-73
2023/07/21 05:23:05;;;;;;;3.78;2.80;;;21.00;70.80;;;;;;4998502;28;20095;-73
2023/07/21 05:25:42;;;;;;;5.18;2.58;;;21.10;70.80;;;;;;4985872;28;20046;-72
2023/07/21 05:28:09;;;;;;;3.72;2.45;;;21.20;70.50;;;;;;5013978;28;20034;-72
2023/07/21 05:30:42;;;;;;;5.25;2.63;;;21.30;70.10;;;;;;4979184;28;20033;-72
2023/07/21 05:33:09;;;;;;;4.85;2.50;;;21.50;70.10;;;;;;5012149;28;20031;-73
2023/07/21 05:35:35;;;;;;;3.65;2.25;;;21.70;70.20;;;;;;5015579;28;20034;-72
2023/07/21 05:38:13;;;;;;;4.45;2.40;;;21.80;69.90;;;;;;5010989;28;20043;-72
2023/07/21 05:40:41;;;;;;;4.70;3.10;;;21.90;69.30;;;;;;4982876;28;20129;-72
2023/07/21 05:43:08;;;;;;;5.32;2.50;;;22.10;69.20;;;;;;5012268;28;20097;-72
2023/07/21 05:45:38;;;;;;;3.03;2.40;;;22.20;69.00;;;;;;5012778;28;20034;-72
2023/07/21 05:48:04;;;;;;;2.72;2.10;;;22.30;68.90;;;;;;5011767;28;20034;-73
2023/07/21 05:50:37;;;;;;;3.95;2.53;;;22.50;68.80;;;;;;5013323;28;20030;-73
2023/07/21 05:53:06;;;;;;;4.22;2.20;;;22.70;68.50;;;;;;4980835;28;20034;-74
2023/07/21 05:55:32;;;;;;;2.35;1.95;;;22.90;68.40;;;;;;4980902;28;20038;-73
2023/07/21 05:57:58;;;;;;;3.17;2.35;;;23.00;68.10;;;;;;5011013;28;20402;-74
2023/07/21 06:00:26;;;;;;;2.33;1.73;;;23.20;67.80;;;;;;4996166;28;20145;-73
2023/07/21 06:02:58;;;;;;;2.72;1.73;;;23.40;67.60;;;;;;5011447;28;20034;-73
2023/07/21 06:05:25;;;;;;;3.70;2.22;;;23.50;67.40;;;;;;5011949;28;20545;-73
2023/07/21 06:08:06;;;;;;;4.78;2.22;;;23.70;67.00;;;;;;4979228;28;20580;-73
2023/07/21 06:11:11;;;;;;;3.47;1.73;;;23.90;66.90;;;;;;5016718;28;20037;-73
2023/07/21 06:13:47;;;;;;;4.60;1.90;;;24.00;66.20;;;;;;5004876;28;20420;-73
2023/07/21 06:16:15;;;;;;;2.22;1.60;;;24.20;65.90;;;;;;5028325;28;20063;-73
2023/07/21 06:18:43;;;;;;;3.10;1.65;;;24.30;65.70;;;;;;5038841;28;20052;-73
2023/07/21 06:21:13;;;;;;;4.10;2.10;;;24.50;65.70;;;;;;5023948;28;20029;-73
2023/07/21 06:23:43;;;;;;;4.68;2.00;;;24.60;65.30;;;;;;5023667;28;20047;-73
2023/07/21 06:26:10;;;;;;;3.30;1.75;;;24.80;64.60;;;;;;5038882;28;20136;-74
2023/07/21 06:28:36;;;;;;;2.58;1.73;;;24.90;63.80;;;;;;5036413;28;20033;-73
2023/07/21 06:31:03;;;;;;;2.55;1.65;;;25.00;63.50;;;;;;5019955;28;20189;-73
2023/07/21 06:33:59;;;;;;;2.60;1.83;;;25.10;62.80;;;;;;5026749;28;20033;-73
2023/07/21 06:36:48;;;;;;;4.05;1.75;;;25.20;63.00;;;;;;5032196;28;20479;-73
2023/07/21 06:39:13;;;;;;;4.45;1.60;;;25.30;62.60;;;;;;5037880;28;20174;-73
2023/07/21 06:42:12;;;;;;;2.90;1.35;;;25.40;62.80;;;;;;4986824;28;20034;-73
2023/07/21 06:44:44;;;;;;;2.50;1.40;;;25.50;62.00;;;;;;4987467;28;20083;-74
2023/07/21 06:47:43;;;;;;;2.28;1.48;;;25.60;62.10;;;;;;4969792;28;20050;-74
2023/07/21 06:50:17;;;;;;;2.63;1.30;;;25.80;62.30;;;;;;4982655;28;20405;-74
2023/07/21 06:52:49;;;;;;;3.45;1.50;;;25.90;61.60;;;;;;4979539;28;20070;-73
2023/07/21 06:55:15;;;;;;;3.85;1.70;;;26.00;61.60;;;;;;4980624;28;20034;-75
2023/07/21 06:57:41;;;;;;;3.95;1.42;;;26.10;61.50;;;;;;5013034;28;20038;-75
2023/07/21 07:00:13;;;;;;;2.72;1.45;;;26.20;60.80;;;;;;5010598;28;20100;-75
2023/07/21 07:02:39;;;;;;;2.75;1.52;;;26.30;60.90;;;;;;4978382;28;20100;-74
2023/07/21 07:05:05;;;;;;;1.85;1.67;;;26.40;60.30;;;;;;5010470;28;20043;-73
2023/07/21 07:07:31;;;;;;;1.80;1.35;;;26.50;59.50;;;;;;4978000;28;20039;-75
2023/07/21 07:09:57;;;;;;;2.42;1.38;;;26.50;58.40;;;;;;4978616;28;20049;-74
2023/07/21 07:12:23;;;;;;;2.08;1.40;;;26.60;57.60;;;;;;5012343;28;20046;-74
2023/07/21 07:14:49;;;;;;;4.38;1.30;;;26.70;58.30;;;;;;4982037;28;20286;-74
2023/07/21 07:17:15;;;;;;;3.15;1.70;;;26.80;57.90;;;;;;4984673;28;20038;-74
2023/07/21 07:19:41;;;;;;;2.90;1.70;;;26.90;56.80;;;;;;5017297;28;20413;-74
2023/07/21 07:22:09;;;;;;;3.83;1.60;;;27.00;57.80;;;;;;4997631;28;20066;-74
2023/07/21 07:24:38;;;;;;;2.67;1.20;;;27.00;57.20;;;;;;5013898;28;20514;-74
2023/07/21 07:27:04;;;;;;;1.83;1.13;;;27.10;57.50;;;;;;4982322;28;20050;-73
2023/07/21 07:29:30;;;;;;;5.68;1.27;;;27.20;57.50;;;;;;4982070;28;20089;-73
2023/07/21 07:31:56;;;;;;;2.90;1.20;;;27.30;56.50;;;;;;4984191;28;20036;-73
2023/07/21 07:34:22;;;;;;;2.85;1.30;;;27.30;57.40;;;;;;4984300;28;20035;-73
2023/07/21 07:36:50;;;;;;;2.75;1.25;;;27.30;55.50;;;;;;4983703;28;20117;-74
2023/07/21 07:39:16;;;;;;;1.85;0.95;;;27.30;54.70;;;;;;4982622;28;20533;-74
2023/07/21 07:41:44;;;;;;;1.80;1.10;;;27.30;54.50;;;;;;4983072;28;20038;-75
2023/07/21 07:44:11;;;;;;;6.65;1.38;;;27.30;55.20;;;;;;4982519;28;20042;-77
2023/07/21 07:46:37;;;;;;;3.35;1.33;;;27.20;58.20;;;;;;4982092;28;20513;-73
2023/07/21 07:49:04;;;;;;;4.18;1.30;;;27.10;57.80;;;;;;4983863;28;20600;-72
2023/07/21 07:51:30;;;;;;;2.28;1.33;;;27.10;58.10;;;;;;4986151;28;20469;-72
2023/07/21 07:53:57;;;;;;;3.05;1.20;;;27.00;58.10;;;;;;4987501;28;20034;-72
2023/07/21 07:56:23;;;;;;;4.45;1.00;;;27.00;57.70;;;;;;5005551;28;20096;-73
2023/07/21 07:58:49;;;;;;;1.60;0.90;;;26.90;54.60;;;;;;4992094;28;20039;-72
2023/07/21 08:01:15;;;;;;;3.65;1.13;;;26.90;56.00;;;;;;4986373;28;20434;-71
2023/07/21 08:03:43;;;;;;;2.65;1.13;;;26.90;58.20;;;;;;4985942;28;20085;-71
2023/07/21 08:06:10;;;;;;;3.72;0.90;;;26.90;58.10;;;;;;4986570;28;20518;-72
2023/07/21 08:08:36;;;;;;;1.45;0.80;;;26.90;58.70;;;;;;4987574;28;20087;-72
2023/07/21 08:11:03;;;;;;;3.80;1.00;;;27.00;58.60;;;;;;4986391;28;20478;-72
2023/07/21 08:13:29;;;;;;;2.70;1.25;;;26.90;58.50;;;;;;4986819;28;20461;-72
2023/07/21 08:15:55;;;;;;;4.20;0.98;;;26.90;58.90;;;;;;4986275;28;20054;-72
2023/07/21 08:18:21;;;;;;;2.17;0.98;;;26.80;58.80;;;;;;4986643;28;20030;-72
2023/07/21 08:20:50;;;;;;;1.88;1.00;;;26.70;54.60;;;;;;4986462;28;20421;-72
2023/07/21 08:23:16;;;;;;;1.92;1.00;;;26.70;55.10;;;;;;4985019;28;20609;-73
2023/07/21 08:25:42;;;;;;;3.08;0.90;;;26.70;56.30;;;;;;4985307;28;20185;-72
2023/07/21 08:28:08;;;;;;;3.30;1.08;;;26.70;55.70;;;;;;4985903;28;20409;-72
2023/07/21 08:30:35;;;;;;;2.42;0.93;;;26.70;55.90;;;;;;4985265;28;20046;-73
2023/07/21 08:33:02;;;;;;;4.07;1.15;;;26.60;54.30;;;;;;4985415;28;20045;-74
2023/07/21 08:35:29;;;;;;;3.45;0.80;;;26.60;56.10;;;;;;5017016;28;20034;-73
2023/07/21 08:37:56;;;;;;;3.00;1.33;;;26.60;57.70;;;;;;4985518;28;20050;-73
2023/07/21 08:40:24;;;;;;;1.17;0.95;;;26.60;57.70;;;;;;4985703;28;20392;-73
2023/07/21 08:42:51;;;;;;;2.38;0.80;;;26.60;58.30;;;;;;4986610;28;20057;-73
2023/07/21 08:45:18;;;;;;;2.00;0.82;;;26.60;58.00;;;;;;4984263;28;20117;-71
2023/07/21 08:47:45;;;;;;;1.30;0.80;;;26.60;57.10;;;;;;4986954;28;20334;-73
2023/07/21 08:50:17;;;;;;;1.17;0.98;;;26.50;56.70;;;;;;4985102;28;20098;-71
2023/07/21 08:52:43;;;;;;;1.08;0.80;;;26.50;56.80;;;;;;4986029;28;20042;-71
2023/07/21 08:55:09;;;;;;;1.38;0.85;;;26.50;55.00;;;;;;4986583;28;20042;-70
2023/07/21 08:57:35;;;;;;;2.08;0.80;;;26.50;54.20;;;;;;4986309;28;20080;-70
2023/07/21 09:00:03;;;;;;;2.15;0.80;;;26.50;53.70;;;;;;4986834;28;20061;-71
2023/07/21 09:02:45;;;;;;;1.80;0.93;;;26.40;53.50;;;;;;4985265;28;20529;-71
2023/07/21 09:05:16;;;;;;;1.98;0.77;;;26.50;53.40;;;;;;4983229;28;20076;-71
2023/07/21 09:07:44;;;;;;;1.90;1.00;;;26.40;54.40;;;;;;4984684;28;20387;-71
2023/07/21 09:10:10;;;;;;;2.63;0.70;;;26.40;53.00;;;;;;4983044;28;20050;-71
2023/07/21 09:12:37;;;;;;;2.38;0.80;;;26.40;53.40;;;;;;4984366;28;20555;-71
2023/07/21 09:15:10;;;;;;;3.30;0.90;;;26.40;53.10;;;;;;4985366;28;21113;-70
2023/07/21 09:17:42;;;;;;;4.10;0.90;;;26.40;52.50;;;;;;4984614;28;20533;-71
2023/07/21 09:20:10;;;;;;;1.77;0.93;;;26.40;52.50;;;;;;4982791;28;20034;-71
2023/07/21 09:22:37;;;;;;;0.88;0.77;;;26.40;52.70;;;;;;4981940;28;20125;-72
2023/07/21 09:25:04;;;;;;;2.90;0.70;;;26.30;52.90;;;;;;4979924;28;20070;-73
2023/07/21 09:27:30;;;;;;;1.52;0.90;;;26.30;52.90;;;;;;4979937;28;20051;-73
2023/07/21 09:30:00;;;;;;;2.45;0.90;;;26.30;52.80;;;;;;4982945;28;20041;-74
2023/07/21 09:32:27;;;;;;;3.17;1.20;;;26.30;53.60;;;;;;5033124;28;20037;-75
2023/07/21 09:34:59;;;;;;;4.03;1.50;;;26.20;54.00;;;;;;4987049;28;20421;-80
2023/07/21 09:37:26;;;;;;;3.70;1.08;;;26.20;54.20;;;;;;4982383;28;20031;-75
2023/07/21 09:39:58;;;;;;;4.28;1.45;;;26.20;54.50;;;;;;4980108;28;20062;-77
2023/07/21 09:42:26;;;;;;;4.03;1.30;;;26.20;54.70;;;;;;4980795;28;20085;-73
2023/07/21 09:44:53;;;;;;;4.45;1.27;;;26.30;54.60;;;;;;4998169;28;20088;-75
2023/07/21 09:47:20;;;;;;;8.55;1.98;;;26.20;55.00;;;;;;4979719;28;20070;-74
2023/07/21 09:49:48;;;;;;;10.13;2.38;;;26.30;57.70;;;;;;4979533;28;20038;-75
2023/07/21 09:52:16;;;;;;;5.13;1.65;;;26.30;56.50;;;;;;4981488;28;20035;-75
2023/07/21 09:54:45;;;;;;;6.50;1.98;;;26.30;54.30;;;;;;4976714;28;20039;-74
2023/07/21 09:57:13;;;;;;;5.10;1.50;;;26.10;53.10;;;;;;4978698;28;20031;-74
2023/07/21 09:59:43;;;;;;;4.35;1.10;;;26.10;53.20;;;;;;4980415;28;20031;-74
2023/07/21 10:02:10;;;;;;;2.80;1.30;;;26.10;53.60;;;;;;4980619;28;20030;-73
2023/07/21 10:04:36;;;;;;;3.67;1.40;;;26.10;52.80;;;;;;4981241;28;20418;-74
2023/07/21 10:07:05;;;;;;;3.53;1.08;;;26.00;52.80;;;;;;4980776;28;20518;-73
2023/07/21 10:09:32;;;;;;;3.63;1.10;;;26.00;52.30;;;;;;4980414;28;20363;-75
2023/07/21 10:12:15;;;;;;;1.58;1.10;;;26.00;52.50;;;;;;4980946;28;20037;-74
2023/07/21 10:14:41;;;;;;;5.80;1.17;;;26.00;53.00;;;;;;4979902;28;20175;-75
2023/07/21 10:17:08;;;;;;;2.60;1.17;;;26.00;52.70;;;;;;4982592;28;20073;-74
2023/07/21 10:19:42;;;;;;;1.98;1.02;;;26.00;52.90;;;;;;4978763;28;20087;-75
2023/07/21 10:22:12;;;;;;;0.90;0.80;;;26.00;52.90;;;;;;4980894;28;20079;-75
2023/07/21 10:24:51;;;;;;;2.15;0.98;;;26.00;53.00;;;;;;4981257;28;20085;-75
2023/07/21 10:27:24;;;;;;;3.15;1.00;;;26.00;53.10;;;;;;4979498;28;20104;-76
2023/07/21 10:30:00;;;;;;;0.80;0.80;;;26.00;53.40;;;;;;4977807;28;20494;-74
2023/07/21 10:32:26;;;;;;;2.42;0.90;;;26.00;53.20;;;;;;5000944;28;20038;-74
2023/07/21 10:34:52;;;;;;;1.95;1.00;;;25.90;52.90;;;;;;4998762;28;20045;-75
2023/07/21 10:37:18;;;;;;;4.88;1.05;;;25.90;52.40;;;;;;5000012;28;20084;-74
2023/07/21 10:39:53;;;;;;;1.20;1.10;;;25.80;53.00;;;;;;5001075;28;20068;-75
2023/07/21 10:42:19;;;;;;;1.73;0.98;;;25.90;53.30;;;;;;5000936;28;20056;-75
2023/07/21 10:44:47;;;;;;;4.85;1.05;;;25.90;53.20;;;;;;4999395;28;20112;-75
2023/07/21 10:47:21;;;;;;;1.52;1.17;;;25.90;53.50;;;;;;5000373;28;20041;-75
2023/07/21 10:49:48;;;;;;;1.58;0.95;;;25.90;53.20;;;;;;5000847;28;20042;-74
2023/07/21 10:52:15;;;;;;;2.10;0.90;;;25.90;53.40;;;;;;5000311;28;20074;-74
2023/07/21 10:54:41;;;;;;;1.70;0.90;;;25.80;53.40;;;;;;4999680;28;20041;-76
2023/07/21 10:57:08;;;;;;;1.70;0.88;;;25.80;53.80;;;;;;4999252;28;20038;-74
2023/07/21 10:59:36;;;;;;;1.65;0.70;;;25.80;54.20;;;;;;5000232;28;20037;-75
2023/07/21 11:02:09;;;;;;;1.00;0.60;;;25.80;54.40;;;;;;5000599;28;20433;-74
2023/07/21 11:04:35;;;;;;;0.95;0.85;;;25.90;54.50;;;;;;4999468;28;20037;-74
2023/07/21 11:07:01;;;;;;;1.95;0.80;;;25.90;54.50;;;;;;4998650;28;20051;-73
2023/07/21 11:09:33;;;;;;;2.40;0.90;;;25.90;54.60;;;;;;4999409;28;20038;-74
2023/07/21 11:12:00;;;;;;;1.75;0.85;;;25.90;54.80;;;;;;5000244;28;20444;-74
2023/07/21 11:14:27;;;;;;;1.48;0.70;;;25.90;54.20;;;;;;4999702;28;20529;-76
2023/07/21 11:16:59;;;;;;;0.95;0.70;;;25.90;53.80;;;;;;4998790;28;20099;-74
2023/07/21 11:19:27;;;;;;;1.25;0.63;;;25.90;54.40;;;;;;4999856;28;20208;-74
2023/07/21 11:21:54;;;;;;;1.00;0.63;;;25.80;54.00;;;;;;4998896;28;20200;-74
2023/07/21 11:24:23;;;;;;;0.68;0.60;;;25.80;54.00;;;;;;5001622;28;20041;-73
2023/07/21 11:26:49;;;;;;;2.05;1.10;;;25.80;54.10;;;;;;5000437;28;20623;-74
2023/07/21 11:29:16;;;;;;;0.90;0.80;;;25.80;54.00;;;;;;4998868;28;20128;-76
2023/07/21 11:31:43;;;;;;;0.93;0.68;;;25.80;53.60;;;;;;4999678;28;20634;-75
2023/07/21 11:34:23;;;;;;;1.13;0.70;;;25.80;53.70;;;;;;4998791;28;20046;-76
2023/07/21 11:36:54;;;;;;;1.55;0.77;;;25.80;53.80;;;;;;4998857;28;20038;-75
2023/07/21 11:39:21;;;;;;;2.20;1.00;;;25.80;53.80;;;;;;4997527;28;20061;-74
2023/07/21 11:41:53;;;;;;;2.25;0.90;;;25.80;54.10;;;;;;4999848;28;20033;-75
2023/07/21 11:44:30;;;;;;;0.90;0.75;;;25.80;54.80;;;;;;4999437;28;20044;-75
2023/07/21 11:47:04;;;;;;;1.20;0.73;;;25.80;54.60;;;;;;5000180;28;20053;-72
2023/07/21 11:49:31;;;;;;;1.67;0.80;;;25.80;54.40;;;;;;4998483;28;20134;-75
2023/07/21 11:52:02;;;;;;;0.70;0.68;;;25.70;54.10;;;;;;4998663;28;20112;-76
2023/07/21 11:54:40;;;;;;;1.05;0.70;;;25.70;54.40;;;;;;4996973;28;20046;-75
2023/07/21 11:57:07;;;;;;;2.20;0.63;;;25.70;54.40;;;;;;4978530;28;20064;-76
2023/07/21 11:59:34;;;;;;;0.68;0.43;;;25.60;54.70;;;;;;4982827;28;20026;-74
2023/07/21 12:02:06;;;;;;;1.95;0.80;;;25.70;54.60;;;;;;4999787;28;20065;-71
2023/07/21 12:04:33;;;;;;;1.80;0.80;;;25.60;54.50;;;;;;4990992;28;20082;-75
2023/07/21 12:07:00;;;;;;;1.05;0.60;;;25.60;54.60;;;;;;4983598;28;20137;-70
2023/07/21 12:09:27;;;;;;;2.15;0.70;;;25.60;54.60;;;;;;4981780;28;20109;-75
2023/07/21 12:11:54;;;;;;;3.08;0.57;;;25.60;54.40;;;;;;4982561;28;20038;-74
2023/07/21 12:14:21;;;;;;;1.52;0.80;;;25.60;54.40;;;;;;4982802;28;20141;-73
2023/07/21 12:16:47;;;;;;;0.85;0.70;;;25.60;54.20;;;;;;4982579;28;20051;-76
2023/07/21 12:19:13;;;;;;;1.35;0.80;;;25.60;54.40;;;;;;4981753;28;20049;-73
2023/07/21 12:21:40;;;;;;;0.70;0.65;;;25.60;54.40;;;;;;5001779;28;20152;-75
2023/07/21 12:24:06;;;;;;;1.17;0.60;;;25.60;54.60;;;;;;4982138;28;20030;-73
2023/07/21 12:26:33;;;;;;;1.45;0.65;;;25.60;54.80;;;;;;4984429;28;20085;-75
2023/07/21 12:28:59;;;;;;;1.00;0.50;;;25.70;55.00;;;;;;4980274;28;20034;-74
2023/07/21 12:31:25;;;;;;;1.05;0.75;;;25.70;54.60;;;;;;4985885;28;20041;-75
2023/07/21 12:33:51;;;;;;;0.80;0.60;;;25.60;54.20;;;;;;4985957;28;20162;-76
2023/07/21 12:36:19;;;;;;;1.33;0.73;;;25.60;54.00;;;;;;4983472;28;20386;-73
2023/07/21 12:38:46;;;;;;;1.38;0.65;;;25.60;54.30;;;;;;4983718;28;20048;-75
2023/07/21 12:41:12;;;;;;;1.63;0.57;;;25.60;54.00;;;;;;4981981;28;20050;-75
2023/07/21 12:43:39;;;;;;;0.90;0.50;;;25.50;53.40;;;;;;4981571;28;20121;-76
2023/07/21 12:46:05;;;;;;;0.85;0.52;;;25.50;53.20;;;;;;4987487;28;20341;-76
2023/07/21 12:48:32;;;;;;;0.75;0.52;;;25.50;53.10;;;;;;4988389;28;20042;-74
2023/07/21 12:50:58;;;;;;;0.70;0.60;;;25.50;53.40;;;;;;4982023;28;20038;-74
2023/07/21 12:53:24;;;;;;;0.75;0.75;;;25.50;53.10;;;;;;4982672;28;20085;-75
2023/07/21 12:55:51;;;;;;;1.40;0.85;;;25.50;53.20;;;;;;4982914;28;20042;-75